Time;durP1;ratioP1;P1;durP2;ratioP2;P2;SDS_P1;SDS_P2;PMS_P1;PMS_P2;Temp;Humidity;BMP_temperature;BMP_pressure;BME280_temperature;BME280_humidity;BME280_pressure;Samples;Min_cycle;Max_cycle;Signal;HPM_P1;HPM_P2
2021/01/23 05:00:38;;;;;;;;;;;3.40;99.90;;;;;;5996736;22;19936;-61
2021/01/23 05:03:05;;;;;;;;;;;3.40;99.90;;;;;;5057194;28;19920;-62
2021/01/23 05:05:32;;;;;;;;;;;3.40;99.90;;;;;;5056652;28;19924;-61
2021/01/23 05:08:05;;;;;;;;;;;3.40;99.90;;;;;;5056747;28;19996;-62
2021/01/23 05:10:31;;;;;;;;;;;3.50;99.90;;;;;;5055911;28;19926;-60
2021/01/23 05:12:58;;;;;;;;;;;3.50;99.90;;;;;;5056296;28;20371;-61
2021/01/23 05:15:25;;;;;;;;;;;3.50;99.90;;;;;;5056490;28;19921;-61
2021/01/23 05:17:53;;;;;;;;;;;3.50;99.90;;;;;;5056341;28;20433;-61
2021/01/23 05:20:29;;;;;;;;;;;3.40;99.90;;;;;;5056299;28;20007;-62
2021/01/23 05:22:55;;;;;;;;;;;3.40;99.90;;;;;;5056458;28;19932;-61
2021/01/23 05:25:25;;;;;;;;;;;3.40;99.90;;;;;;5056364;28;19928;-61
2021/01/23 05:27:51;;;;;;;;;;;3.30;99.90;;;;;;5055841;28;19920;-61
2021/01/23 05:30:17;;;;;;;;;;;3.30;99.90;;;;;;5056165;28;19921;-61
2021/01/23 05:32:43;;;;;;;;;;;3.30;99.90;;;;;;5056298;28;20236;-61
2021/01/23 05:35:13;;;;;;;;;;;3.40;99.90;;;;;;5056209;28;19920;-62
2021/01/23 05:37:39;;;;;;;;;;;3.30;99.90;;;;;;5055727;28;19921;-61
2021/01/23 05:40:06;;;;;;;;;;;3.30;99.90;;;;;;5055839;28;20015;-61
2021/01/23 05:42:40;;;;;;;;;;;3.30;99.90;;;;;;5055921;28;20314;-61
2021/01/23 05:45:08;;;;;;;;;;;3.30;99.90;;;;;;5055883;28;19924;-61
2021/01/23 05:47:35;;;;;;;;;;;3.20;99.90;;;;;;5056397;28;19980;-61
2021/01/23 05:50:01;;;;;;;;;;;3.20;99.90;;;;;;5055797;28;19921;-61
2021/01/23 05:52:28;;;;;;;;;;;3.10;99.90;;;;;;5055769;28;19974;-62
2021/01/23 05:54:54;;;;;;;;;;;3.10;99.90;;;;;;5055855;28;19924;-60
2021/01/23 05:57:21;;;;;;;;;;;3.10;99.90;;;;;;5055628;28;19921;-62
2021/01/23 05:59:47;;;;;;;;;;;3.10;99.90;;;;;;5055746;28;19921;-61
2021/01/23 06:02:14;;;;;;;;;;;3.00;99.90;;;;;;5055693;28;19920;-62
2021/01/23 06:04:42;;;;;;;;;;;3.00;99.90;;;;;;5055168;28;20375;-61
2021/01/23 06:07:08;;;;;;;;;;;3.00;99.90;;;;;;5055551;28;19921;-63
2021/01/23 06:09:36;;;;;;;;;;;2.90;99.90;;;;;;5056071;28;19920;-60
2021/01/23 06:12:03;;;;;;;;;;;2.90;99.90;;;;;;5055750;28;19920;-62
2021/01/23 06:14:35;;;;;;;;;;;2.90;99.90;;;;;;5055417;28;20398;-61
2021/01/23 06:17:01;;;;;;;;;;;2.90;99.90;;;;;;5055558;28;19928;-60
2021/01/23 06:19:40;;;;;;;;;;;2.80;99.90;;;;;;5055742;28;19927;-62
2021/01/23 06:22:07;;;;;;;;;;;2.90;99.90;;;;;;5054562;28;19925;-63
2021/01/23 06:24:51;;;;;;;;;;;2.90;99.90;;;;;;5055740;28;20268;-61
2021/01/23 06:27:18;;;;;;;;;;;3.00;99.90;;;;;;5055665;28;19921;-63
2021/01/23 06:29:44;;;;;;;;;;;3.00;99.90;;;;;;5055529;28;19928;-61
2021/01/23 06:32:26;;;;;;;;;;;3.00;99.90;;;;;;5055532;28;19928;-62
2021/01/23 06:34:53;;;;;;;;;;;3.10;99.90;;;;;;5055692;28;19928;-62
2021/01/23 06:37:21;;;;;;;;;;;3.20;99.90;;;;;;5055272;28;20303;-61
2021/01/23 06:40:04;;;;;;;;;;;3.20;99.90;;;;;;5055341;28;20015;-62
2021/01/23 06:42:30;;;;;;;;;;;3.20;99.90;;;;;;5055452;28;19921;-63
2021/01/23 06:45:09;;;;;;;;;;;3.20;99.90;;;;;;5055522;28;19921;-62
2021/01/23 06:47:37;;;;;;;;;;;3.30;99.90;;;;;;5055553;28;19921;-62
2021/01/23 06:50:04;;;;;;;;;;;3.30;99.90;;;;;;5054960;28;19921;-61
2021/01/23 06:52:30;;;;;;;;;;;3.30;99.90;;;;;;5056556;28;19925;-63
2021/01/23 06:54:56;;;;;;;;;;;3.40;99.90;;;;;;5056660;28;19932;-61
2021/01/23 06:57:22;;;;;;;;;;;3.40;99.90;;;;;;5057413;28;20263;-61
2021/01/23 06:59:49;;;;;;;;;;;3.40;99.90;;;;;;5056089;28;19921;-63
2021/01/23 07:02:16;;;;;;;;;;;3.40;99.90;;;;;;5055650;28;19921;-62
2021/01/23 07:04:44;;;;;;;;;;;3.40;99.90;;;;;;5055628;28;19920;-62
2021/01/23 07:07:11;;;;;;;;;;;3.40;99.90;;;;;;5055639;28;19921;-62
2021/01/23 07:09:44;;;;;;;;;;;3.30;99.90;;;;;;5055006;28;19925;-62
2021/01/23 07:12:10;;;;;;;;;;;3.40;99.90;;;;;;5054618;28;19920;-63
2021/01/23 07:14:36;;;;;;;;;;;3.40;99.90;;;;;;5054589;28;19925;-61
2021/01/23 07:17:03;;;;;;;;;;;3.40;99.90;;;;;;5054179;28;20371;-62
2021/01/23 07:19:29;;;;;;;;;;;3.40;99.90;;;;;;5054489;28;19921;-61
2021/01/23 07:21:55;;;;;;;;;;;3.40;99.90;;;;;;5055052;28;19921;-62
2021/01/23 07:24:21;;;;;;;;;;;3.40;99.90;;;;;;5054640;28;19970;-62
2021/01/23 07:26:48;;;;;;;;;;;3.40;99.90;;;;;;5054964;28;19921;-62
2021/01/23 07:29:14;;;;;;;;;;;3.40;99.90;;;;;;5054229;28;19928;-63
2021/01/23 07:31:40;;;;;;;;;;;3.40;99.90;;;;;;5054173;28;19920;-62
2021/01/23 07:34:10;;;;;;;;;;;3.40;99.90;;;;;;5053656;28;20414;-62
2021/01/23 07:36:37;;;;;;;;;;;3.50;99.90;;;;;;5053973;28;20395;-62
2021/01/23 07:39:07;;;;;;;;;;;3.50;99.90;;;;;;5070312;28;19959;-62
2021/01/23 07:41:34;;;;;;;;;;;3.50;99.90;;;;;;5079182;28;19920;-62
2021/01/23 07:44:01;;;;;;;;;;;3.50;99.90;;;;;;5078312;28;19976;-62
2021/01/23 07:46:34;;;;;;;;;;;3.50;99.90;;;;;;5077920;28;19955;-62
2021/01/23 07:49:00;;;;;;;;;;;3.50;99.90;;;;;;5078412;28;19927;-61
2021/01/23 07:51:28;;;;;;;;;;;3.60;99.90;;;;;;5073216;28;19921;-62
2021/01/23 07:54:07;;;;;;;;;;;3.50;99.90;;;;;;5055490;28;19927;-62
2021/01/23 07:56:33;;;;;;;;;;;3.50;99.90;;;;;;5054592;28;19972;-62
2021/01/23 07:58:59;;;;;;;;;;;3.50;99.90;;;;;;5057355;28;19927;-66
2021/01/23 08:01:26;;;;;;;;;;;3.60;99.90;;;;;;5054752;28;19948;-62
2021/01/23 08:03:52;;;;;;;;;;;3.70;99.90;;;;;;5053976;28;19925;-61
2021/01/23 08:06:21;;;;;;;;;;;3.70;99.90;;;;;;5054203;28;19928;-63
2021/01/23 08:08:49;;;;;;;;;;;3.80;99.90;;;;;;5054100;28;19921;-62
2021/01/23 08:11:37;;;;;;;;;;;3.70;99.90;;;;;;5053983;28;19920;-62
2021/01/23 08:14:07;;;;;;;;;;;3.80;99.90;;;;;;5054014;28;19967;-60
2021/01/23 08:16:33;;;;;;;;;;;3.90;99.90;;;;;;5054287;28;19966;-61
2021/01/23 08:19:05;;;;;;;;;;;4.00;99.90;;;;;;5054069;28;20283;-63
2021/01/23 08:21:32;;;;;;;;;;;4.00;99.90;;;;;;5053761;28;19944;-61
2021/01/23 08:23:58;;;;;;;;;;;4.10;99.90;;;;;;5054110;28;19971;-62
2021/01/23 08:26:36;;;;;;;;;;;4.20;99.90;;;;;;5054613;28;19921;-61
2021/01/23 08:29:02;;;;;;;;;;;4.20;99.90;;;;;;5053935;28;19952;-62
2021/01/23 08:31:28;;;;;;;;;;;4.20;99.90;;;;;;5053745;28;19967;-62
2021/01/23 08:33:55;;;;;;;;;;;4.30;99.90;;;;;;5053571;28;20363;-61
2021/01/23 08:36:22;;;;;;;;;;;4.40;99.90;;;;;;5053974;28;20020;-60
2021/01/23 08:38:54;;;;;;;;;;;4.50;99.90;;;;;;5053443;28;19921;-62
2021/01/23 08:41:21;;;;;;;;;;;4.50;99.90;;;;;;5054005;28;19973;-62
2021/01/23 08:43:47;;;;;;;;;;;4.60;99.90;;;;;;5053763;28;20393;-63
2021/01/23 08:46:13;;;;;;;;;;;4.80;99.90;;;;;;5056155;28;20402;-62
2021/01/23 08:48:39;;;;;;;;;;;5.00;99.90;;;;;;5058001;28;19925;-60
2021/01/23 08:51:05;;;;;;;;;;;5.10;99.90;;;;;;5058048;28;19921;-61
2021/01/23 08:53:31;;;;;;;;;;;5.30;99.90;;;;;;5057364;28;19921;-62
2021/01/23 08:55:57;;;;;;;;;;;5.50;99.90;;;;;;5059703;28;19928;-61
2021/01/23 08:58:25;;;;;;;;;;;5.50;99.90;;;;;;5057387;28;19920;-62
2021/01/23 09:00:51;;;;;;;;;;;5.60;99.90;;;;;;5057075;28;19920;-61
2021/01/23 09:03:17;;;;;;;;;;;5.80;99.90;;;;;;5057336;28;19943;-61
2021/01/23 09:05:44;;;;;;;;;;;6.00;99.90;;;;;;5056981;28;19924;-63
2021/01/23 09:08:10;;;;;;;;;;;6.40;99.90;;;;;;5056820;28;19971;-62
2021/01/23 09:10:36;;;;;;;;;;;6.40;99.90;;;;;;5056900;28;19920;-61
2021/01/23 09:13:02;;;;;;;;;;;6.30;99.90;;;;;;5056294;28;20398;-63
2021/01/23 09:15:29;;;;;;;;;;;6.30;99.90;;;;;;5056459;28;19925;-62
2021/01/23 09:17:55;;;;;;;;;;;6.10;99.90;;;;;;5056488;28;19920;-63
2021/01/23 09:20:21;;;;;;;;;;;6.10;99.90;;;;;;5056342;28;19932;-62
2021/01/23 09:22:47;;;;;;;;;;;5.90;99.90;;;;;;5056525;28;19929;-62
2021/01/23 09:25:13;;;;;;;;;;;6.10;99.90;;;;;;5056389;28;19921;-63
2021/01/23 09:27:39;;;;;;;;;;;6.00;99.90;;;;;;5056254;28;19921;-62
2021/01/23 09:30:06;;;;;;;;;;;6.00;99.90;;;;;;5056239;28;19928;-62
2021/01/23 09:32:32;;;;;;;;;;;6.00;99.90;;;;;;5056261;28;20023;-62
2021/01/23 09:34:58;;;;;;;;;;;6.10;99.90;;;;;;5056182;28;19921;-62
2021/01/23 09:37:25;;;;;;;;;;;6.30;99.90;;;;;;5056324;28;19920;-62
2021/01/23 09:39:52;;;;;;;;;;;6.30;99.90;;;;;;5056145;28;20019;-63
2021/01/23 09:42:18;;;;;;;;;;;6.40;99.90;;;;;;5056133;28;19920;-62
2021/01/23 09:44:44;;;;;;;;;;;6.50;99.90;;;;;;5056326;28;19921;-62
2021/01/23 09:47:12;;;;;;;;;;;6.70;99.90;;;;;;5056079;28;19921;-62
2021/01/23 09:49:39;;;;;;;;;;;6.80;99.90;;;;;;5055989;28;19967;-61
2021/01/23 09:52:05;;;;;;;;;;;7.00;99.90;;;;;;5055866;28;19966;-62
2021/01/23 09:54:31;;;;;;;;;;;6.90;99.90;;;;;;5055906;28;19921;-63
2021/01/23 09:56:57;;;;;;;;;;;6.90;99.90;;;;;;5056894;28;19921;-62
2021/01/23 09:59:23;;;;;;;;;;;7.00;99.90;;;;;;5055827;28;19921;-63
2021/01/23 10:01:49;;;;;;;;;;;7.00;99.90;;;;;;5055401;28;19921;-62
2021/01/23 10:04:15;;;;;;;;;;;7.20;99.90;;;;;;5055560;28;19928;-62
2021/01/23 10:06:42;;;;;;;;;;;7.10;99.90;;;;;;5055583;28;19943;-62
2021/01/23 10:09:08;;;;;;;;;;;7.10;99.90;;;;;;5055550;28;19927;-62
2021/01/23 10:11:34;;;;;;;;;;;7.10;99.90;;;;;;5056233;28;19928;-63
2021/01/23 10:14:00;;;;;;;;;;;7.00;99.90;;;;;;5056967;28;20327;-62
2021/01/23 10:16:26;;;;;;;;;;;7.40;99.90;;;;;;5055141;28;19935;-64
2021/01/23 10:18:52;;;;;;;;;;;7.60;99.90;;;;;;5062808;28;19927;-63
2021/01/23 10:21:18;;;;;;;;;;;7.70;99.90;;;;;;5076342;28;19921;-63
2021/01/23 10:23:45;;;;;;;;;;;7.80;99.90;;;;;;5077854;28;19927;-63
2021/01/23 10:26:11;;;;;;;;;;;7.30;99.90;;;;;;5077587;28;19943;-63
2021/01/23 10:28:37;;;;;;;;;;;7.50;99.90;;;;;;5076407;28;19921;-62
2021/01/23 10:31:03;;;;;;;;;;;8.10;99.90;;;;;;5059355;28;19921;-62
2021/01/23 10:33:29;;;;;;;;;;;8.50;99.90;;;;;;5057030;28;20291;-63
2021/01/23 10:35:55;;;;;;;;;;;8.60;99.90;;;;;;5056864;28;19921;-62
2021/01/23 10:38:21;;;;;;;;;;;8.70;99.90;;;;;;5056390;28;19920;-62
2021/01/23 10:40:48;;;;;;;;;;;8.90;99.90;;;;;;5055780;28;19921;-61
2021/01/23 10:43:14;;;;;;;;;;;8.90;99.90;;;;;;5055544;28;19927;-62
2021/01/23 10:45:40;;;;;;;;;;;8.70;99.90;;;;;;5055938;28;19928;-61
2021/01/23 10:48:07;;;;;;;;;;;8.50;99.90;;;;;;5056374;28;19931;-61
2021/01/23 10:50:33;;;;;;;;;;;8.50;99.90;;;;;;5055352;28;19924;-62
2021/01/23 10:52:59;;;;;;;;;;;8.40;99.90;;;;;;5055523;28;20284;-65
2021/01/23 10:55:25;;;;;;;;;;;8.20;99.90;;;;;;5055730;28;19987;-61
2021/01/23 10:57:52;;;;;;;;;;;8.20;99.90;;;;;;5055864;28;19920;-62
2021/01/23 11:00:19;;;;;;;;;;;8.10;99.90;;;;;;5055545;28;19971;-62
2021/01/23 11:02:45;;;;;;;;;;;8.20;99.90;;;;;;5056053;28;19921;-63
2021/01/23 11:05:11;;;;;;;;;;;8.20;99.90;;;;;;5055644;28;19927;-61
2021/01/23 11:07:37;;;;;;;;;;;8.10;99.90;;;;;;5057650;28;19971;-62
2021/01/23 11:10:04;;;;;;;;;;;8.00;99.90;;;;;;5056424;28;19924;-61
2021/01/23 11:12:30;;;;;;;;;;;8.00;99.90;;;;;;5056352;28;19928;-62
2021/01/23 11:14:57;;;;;;;;;;;8.00;99.90;;;;;;5055992;28;19927;-61
2021/01/23 11:17:23;;;;;;;;;;;8.00;99.90;;;;;;5056126;28;19921;-63
2021/01/23 11:19:49;;;;;;;;;;;8.10;99.90;;;;;;5056414;28;19947;-62
2021/01/23 11:22:15;;;;;;;;;;;8.10;99.90;;;;;;5056027;28;19928;-61
2021/01/23 11:24:41;;;;;;;;;;;8.10;99.90;;;;;;5056020;28;19928;-61
2021/01/23 11:27:07;;;;;;;;;;;8.20;99.90;;;;;;5055848;28;19970;-61
2021/01/23 11:29:34;;;;;;;;;;;8.40;99.90;;;;;;5055975;28;19931;-63
2021/01/23 11:32:01;;;;;;;;;;;8.40;99.90;;;;;;5055254;28;19989;-62
2021/01/23 11:34:27;;;;;;;;;;;8.30;99.90;;;;;;5055473;28;19932;-63
2021/01/23 11:36:53;;;;;;;;;;;8.10;99.90;;;;;;5055132;28;19927;-62
2021/01/23 11:39:19;;;;;;;;;;;8.20;99.90;;;;;;5055125;28;19921;-62
2021/01/23 11:41:45;;;;;;;;;;;8.20;99.90;;;;;;5055525;28;19928;-61
2021/01/23 11:44:11;;;;;;;;;;;8.20;99.90;;;;;;5055883;28;19928;-61
2021/01/23 11:46:37;;;;;;;;;;;8.20;99.90;;;;;;5054668;28;19928;-62
2021/01/23 11:49:04;;;;;;;;;;;8.20;99.90;;;;;;5055203;28;20295;-63
2021/01/23 11:51:30;;;;;;;;;;;8.40;99.90;;;;;;5061025;28;19927;-63
2021/01/23 11:53:58;;;;;;;;;;;8.60;99.90;;;;;;5075277;28;19924;-63
2021/01/23 11:56:24;;;;;;;;;;;8.50;99.90;;;;;;5076081;28;19928;-63
2021/01/23 11:58:51;;;;;;;;;;;8.50;99.90;;;;;;5064611;28;19920;-62
2021/01/23 12:01:17;;;;;;;;;;;8.40;99.90;;;;;;5056701;28;19971;-63
2021/01/23 12:03:43;;;;;;;;;;;8.40;99.90;;;;;;5057260;28;19928;-63
2021/01/23 12:06:10;;;;;;;;;;;8.50;99.90;;;;;;5055547;28;19925;-62
2021/01/23 12:08:36;;;;;;;;;;;8.60;99.90;;;;;;5055541;28;19924;-61
2021/01/23 12:11:02;;;;;;;;;;;8.50;99.90;;;;;;5057271;28;19924;-63
2021/01/23 12:13:28;;;;;;;;;;;8.70;99.90;;;;;;5056563;28;19921;-62
2021/01/23 12:15:54;;;;;;;;;;;8.60;99.90;;;;;;5056016;28;19928;-63
2021/01/23 12:18:20;;;;;;;;;;;8.30;99.90;;;;;;5058311;28;19921;-63
2021/01/23 12:20:48;;;;;;;;;;;8.10;99.90;;;;;;5067064;28;19924;-63
2021/01/23 12:23:16;;;;;;;;;;;8.10;99.90;;;;;;5075409;28;19920;-63
2021/01/23 12:25:42;;;;;;;;;;;8.20;99.90;;;;;;5078095;28;19920;-63
2021/01/23 12:28:08;;;;;;;;;;;8.20;99.90;;;;;;5077824;28;19921;-63
2021/01/23 12:30:34;;;;;;;;;;;8.00;99.90;;;;;;5073963;28;19924;-62
2021/01/23 12:33:00;;;;;;;;;;;8.10;99.90;;;;;;5069624;28;19920;-62
2021/01/23 12:35:26;;;;;;;;;;;8.00;99.90;;;;;;5070095;28;19947;-62
2021/01/23 12:37:57;;;;;;;;;;;8.10;99.90;;;;;;5070329;28;19925;-62
2021/01/23 12:40:24;;;;;;;;;;;8.10;99.90;;;;;;5066201;28;19924;-62
2021/01/23 12:42:50;;;;;;;;;;;8.10;99.90;;;;;;5061941;28;19974;-63
2021/01/23 12:45:16;;;;;;;;;;;8.20;99.90;;;;;;5060615;28;19933;-63
2021/01/23 12:47:42;;;;;;;;;;;8.20;99.90;;;;;;5060420;28;20339;-62
2021/01/23 12:50:08;;;;;;;;;;;8.30;99.90;;;;;;5059740;28;19979;-63
2021/01/23 12:52:35;;;;;;;;;;;8.50;99.90;;;;;;5061094;28;19925;-63
2021/01/23 12:55:01;;;;;;;;;;;8.40;99.90;;;;;;5061120;28;19924;-63
2021/01/23 12:57:28;;;;;;;;;;;8.40;99.90;;;;;;5062957;28;19954;-63
2021/01/23 12:59:54;;;;;;;;;;;8.30;99.90;;;;;;5061174;28;19925;-62
2021/01/23 13:02:20;;;;;;;;;;;8.30;99.90;;;;;;5061256;28;19928;-62
2021/01/23 13:04:46;;;;;;;;;;;8.30;99.90;;;;;;5059776;28;19929;-63
2021/01/23 13:07:12;;;;;;;;;;;8.30;99.90;;;;;;5058508;28;19932;-63
2021/01/23 13:09:38;;;;;;;;;;;8.50;99.90;;;;;;5058307;28;19925;-62
2021/01/23 13:12:05;;;;;;;;;;;8.30;99.90;;;;;;5058171;28;19925;-62
2021/01/23 13:14:31;;;;;;;;;;;8.10;99.90;;;;;;5058312;28;19955;-62
2021/01/23 13:16:57;;;;;;;;;;;8.00;99.90;;;;;;5058435;28;19995;-62
2021/01/23 13:19:25;;;;;;;;;;;8.10;99.90;;;;;;5058989;28;19925;-62
2021/01/23 13:21:51;;;;;;;;;;;8.10;99.90;;;;;;5058257;28;19925;-62
2021/01/23 13:24:17;;;;;;;;;;;7.90;99.90;;;;;;5057112;28;19929;-63
2021/01/23 13:26:43;;;;;;;;;;;8.10;99.90;;;;;;5057501;28;20280;-62
2021/01/23 13:29:09;;;;;;;;;;;8.30;99.90;;;;;;5057762;28;19928;-62
2021/01/23 13:31:36;;;;;;;;;;;8.40;99.90;;;;;;5056107;28;20360;-62
2021/01/23 13:34:02;;;;;;;;;;;8.40;99.90;;;;;;5056703;28;20003;-62
2021/01/23 13:36:28;;;;;;;;;;;8.50;99.90;;;;;;5056775;28;20010;-62
2021/01/23 13:38:54;;;;;;;;;;;8.40;99.90;;;;;;5057002;28;20303;-64
2021/01/23 13:41:20;;;;;;;;;;;8.30;99.90;;;;;;5056762;28;20384;-62
2021/01/23 13:43:46;;;;;;;;;;;8.30;99.90;;;;;;5056972;28;20287;-62
2021/01/23 13:46:12;;;;;;;;;;;8.20;99.90;;;;;;5059451;28;19974;-62
2021/01/23 13:48:39;;;;;;;;;;;8.20;99.90;;;;;;5057020;28;20295;-61
2021/01/23 13:51:05;;;;;;;;;;;8.10;99.90;;;;;;5056459;28;20346;-62
2021/01/23 13:53:31;;;;;;;;;;;8.00;99.90;;;;;;5056184;28;20299;-70
2021/01/23 13:55:57;;;;;;;;;;;7.80;99.90;;;;;;5055898;28;19925;-62
2021/01/23 13:58:23;;;;;;;;;;;7.70;99.90;;;;;;5056641;28;19924;-62
2021/01/23 14:00:50;;;;;;;;;;;7.40;99.90;;;;;;5056171;28;19925;-62
2021/01/23 14:03:16;;;;;;;;;;;7.30;99.90;;;;;;5055888;28;19936;-63
2021/01/23 14:05:43;;;;;;;;;;;7.20;99.90;;;;;;5060674;28;19924;-62
2021/01/23 14:08:09;;;;;;;;;;;7.10;99.90;;;;;;5057163;28;19932;-62
2021/01/23 14:10:35;;;;;;;;;;;7.00;99.90;;;;;;5056044;28;20407;-61
2021/01/23 14:13:01;;;;;;;;;;;7.00;99.90;;;;;;5055641;28;20403;-61
2021/01/23 14:15:27;;;;;;;;;;;7.20;99.90;;;;;;5055977;28;19987;-62
2021/01/23 14:17:53;;;;;;;;;;;7.10;99.90;;;;;;5055898;28;19931;-62
2021/01/23 14:20:20;;;;;;;;;;;7.10;99.90;;;;;;5056636;28;19978;-63
2021/01/23 14:22:47;;;;;;;;;;;7.00;99.90;;;;;;5055700;28;20338;-62
2021/01/23 14:25:15;;;;;;;;;;;6.90;99.90;;;;;;5055792;28;19931;-64
2021/01/23 14:27:42;;;;;;;;;;;6.90;99.90;;;;;;5055356;28;20268;-63
2021/01/23 14:30:09;;;;;;;;;;;6.80;99.90;;;;;;5055633;28;19925;-64
2021/01/23 14:32:35;;;;;;;;;;;6.70;99.90;;;;;;5055385;28;19932;-63
2021/01/23 14:35:01;;;;;;;;;;;6.60;99.90;;;;;;5055246;28;19933;-63
2021/01/23 14:37:28;;;;;;;;;;;6.60;99.90;;;;;;5054389;28;20217;-62
2021/01/23 14:39:55;;;;;;;;;;;6.40;99.90;;;;;;5055711;28;19925;-63
2021/01/23 14:42:21;;;;;;;;;;;6.40;99.90;;;;;;5056275;28;19931;-63
2021/01/23 14:44:48;;;;;;;;;;;6.30;99.90;;;;;;5054820;28;19934;-64
2021/01/23 14:47:14;;;;;;;;;;;6.30;99.90;;;;;;5055729;28;19924;-63
2021/01/23 14:49:40;;;;;;;;;;;6.30;99.90;;;;;;5055396;28;20020;-64
2021/01/23 14:52:06;;;;;;;;;;;6.30;99.90;;;;;;5054598;28;19935;-64
2021/01/23 14:54:32;;;;;;;;;;;6.20;99.90;;;;;;5054993;28;19946;-64
2021/01/23 14:56:59;;;;;;;;;;;6.20;99.90;;;;;;5055003;28;19928;-63
2021/01/23 14:59:25;;;;;;;;;;;6.10;99.90;;;;;;5055429;28;19925;-63
2021/01/23 15:01:52;;;;;;;;;;;6.10;99.90;;;;;;5054502;28;19925;-64
2021/01/23 15:04:18;;;;;;;;;;;6.10;99.90;;;;;;5054679;28;19924;-62
2021/01/23 15:06:44;;;;;;;;;;;6.10;99.90;;;;;;5054202;28;19932;-63
2021/01/23 15:09:10;;;;;;;;;;;6.10;99.90;;;;;;5054817;28;19951;-63
2021/01/23 15:11:36;;;;;;;;;;;6.10;99.90;;;;;;5054711;28;19929;-63
2021/01/23 15:14:03;;;;;;;;;;;6.10;99.90;;;;;;5055202;28;19959;-62
2021/01/23 15:16:30;;;;;;;;;;;6.10;99.90;;;;;;5054749;28;19925;-64
2021/01/23 15:18:56;;;;;;;;;;;6.00;99.90;;;;;;5059921;28;20400;-62
2021/01/23 15:21:22;;;;;;;;;;;6.00;99.90;;;;;;5076795;28;19916;-62
2021/01/23 15:23:48;;;;;;;;;;;6.00;99.90;;;;;;5077042;28;19925;-62
2021/01/23 15:26:14;;;;;;;;;;;6.00;99.90;;;;;;5074479;28;19978;-61
2021/01/23 15:28:40;;;;;;;;;;;6.00;99.90;;;;;;5064621;28;19930;-63
2021/01/23 15:31:07;;;;;;;;;;;6.10;99.90;;;;;;5056560;28;19929;-62
2021/01/23 15:33:33;;;;;;;;;;;6.10;99.90;;;;;;5056058;28;19925;-63
2021/01/23 15:35:59;;;;;;;;;;;5.90;99.90;;;;;;5055551;28;19925;-64
2021/01/23 15:38:25;;;;;;;;;;;5.90;99.90;;;;;;5054981;28;19925;-63
2021/01/23 15:40:52;;;;;;;;;;;5.80;99.90;;;;;;5055273;28;19925;-63
2021/01/23 15:43:18;;;;;;;;;;;5.80;99.90;;;;;;5054614;28;19924;-63
2021/01/23 15:45:44;;;;;;;;;;;5.80;99.90;;;;;;5054505;28;19925;-63
2021/01/23 15:48:11;;;;;;;;;;;5.80;99.90;;;;;;5054761;28;19925;-63
2021/01/23 15:50:37;;;;;;;;;;;5.80;99.90;;;;;;5054226;28;20372;-61
2021/01/23 15:53:03;;;;;;;;;;;5.80;99.90;;;;;;5055405;28;19925;-62
2021/01/23 15:55:29;;;;;;;;;;;5.70;99.90;;;;;;5057388;28;20438;-62
2021/01/23 15:57:55;;;;;;;;;;;5.70;99.90;;;;;;5058744;28;20379;-62
2021/01/23 16:00:21;;;;;;;;;;;5.70;99.90;;;;;;5069199;28;19932;-61
2021/01/23 16:02:47;;;;;;;;;;;5.60;99.90;;;;;;5069100;28;20384;-61
2021/01/23 16:05:14;;;;;;;;;;;5.50;99.90;;;;;;5059784;28;19932;-64
2021/01/23 16:07:40;;;;;;;;;;;5.50;99.90;;;;;;5072664;28;19925;-62
2021/01/23 16:10:07;;;;;;;;;;;5.30;99.90;;;;;;5082085;28;19928;-61
2021/01/23 16:12:33;;;;;;;;;;;5.20;99.90;;;;;;5080731;28;19925;-62
2021/01/23 16:15:00;;;;;;;;;;;5.10;99.90;;;;;;5064857;28;19931;-62
2021/01/23 16:17:26;;;;;;;;;;;5.10;99.90;;;;;;5061358;28;20380;-63
2021/01/23 16:19:52;;;;;;;;;;;5.00;99.90;;;;;;5060500;28;19932;-62
2021/01/23 16:22:19;;;;;;;;;;;5.00;99.90;;;;;;5059164;28;19953;-62
2021/01/23 16:24:45;;;;;;;;;;;4.90;99.90;;;;;;5059038;28;19934;-62
2021/01/23 16:27:11;;;;;;;;;;;4.90;99.90;;;;;;5058654;28;19928;-62
2021/01/23 16:29:39;;;;;;;;;;;4.80;99.90;;;;;;5057856;28;19925;-63
2021/01/23 16:32:05;;;;;;;;;;;4.80;99.90;;;;;;5058362;28;19925;-63
2021/01/23 16:34:31;;;;;;;;;;;4.80;99.90;;;;;;5058085;28;19932;-63
2021/01/23 16:36:58;;;;;;;;;;;4.70;99.90;;;;;;5057913;28;20391;-64
2021/01/23 16:39:25;;;;;;;;;;;4.70;99.90;;;;;;5057774;28;20315;-63
2021/01/23 16:41:53;;;;;;;;;;;4.70;99.90;;;;;;5057736;28;19925;-63
2021/01/23 16:44:19;;;;;;;;;;;4.60;99.90;;;;;;5059154;28;19940;-63
2021/01/23 16:46:45;;;;;;;;;;;4.60;99.90;;;;;;5059287;28;19924;-63
2021/01/23 16:49:11;;;;;;;;;;;4.60;99.90;;;;;;5057928;28;19928;-63
2021/01/23 16:51:37;;;;;;;;;;;4.50;99.90;;;;;;5058283;28;19925;-63
2021/01/23 16:54:04;;;;;;;;;;;4.50;99.90;;;;;;5057813;28;20031;-63
2021/01/23 16:56:31;;;;;;;;;;;4.50;99.90;;;;;;5057818;28;19932;-62
2021/01/23 16:58:57;;;;;;;;;;;4.60;99.90;;;;;;5057629;28;19951;-63
2021/01/23 17:01:23;;;;;;;;;;;4.50;99.90;;;;;;5057426;28;19924;-62
2021/01/23 17:03:50;;;;;;;;;;;4.50;99.90;;;;;;5057225;28;19939;-62
2021/01/23 17:06:17;;;;;;;;;;;4.50;99.90;;;;;;5056387;28;19980;-62
2021/01/23 17:08:43;;;;;;;;;;;4.40;99.90;;;;;;5057105;28;20406;-62
2021/01/23 17:11:09;;;;;;;;;;;4.40;99.90;;;;;;5057748;28;20360;-63
2021/01/23 17:13:35;;;;;;;;;;;4.50;99.90;;;;;;5056713;28;20323;-62
2021/01/23 17:16:02;;;;;;;;;;;4.50;99.90;;;;;;5056824;28;19956;-62
2021/01/23 17:18:28;;;;;;;;;;;4.50;99.90;;;;;;5057119;28;19928;-64
2021/01/23 17:20:54;;;;;;;;;;;4.50;99.90;;;;;;5057104;28;19925;-62
2021/01/23 17:23:20;;;;;;;;;;;4.50;99.90;;;;;;5056809;28;19932;-62
2021/01/23 17:25:46;;;;;;;;;;;4.50;99.90;;;;;;5056379;28;19947;-63
2021/01/23 17:28:12;;;;;;;;;;;4.60;99.90;;;;;;5056687;28;19979;-62
2021/01/23 17:30:39;;;;;;;;;;;4.50;99.90;;;;;;5057876;28;19948;-63
2021/01/23 17:33:05;;;;;;;;;;;4.50;99.90;;;;;;5056856;28;19925;-63
2021/01/23 17:35:34;;;;;;;;;;;4.60;99.90;;;;;;5056700;28;20449;-63
2021/01/23 17:38:00;;;;;;;;;;;4.50;99.90;;;;;;5064668;28;19925;-63
2021/01/23 17:40:26;;;;;;;;;;;4.40;99.90;;;;;;5072633;28;19925;-62
2021/01/23 17:42:52;;;;;;;;;;;4.30;99.90;;;;;;5073908;28;19924;-63
2021/01/23 17:45:18;;;;;;;;;;;4.30;99.90;;;;;;5069858;28;19925;-63
2021/01/23 17:47:46;;;;;;;;;;;4.30;99.90;;;;;;5067036;28;19924;-62
2021/01/23 17:50:12;;;;;;;;;;;4.20;99.90;;;;;;5061584;28;20375;-61
2021/01/23 17:52:38;;;;;;;;;;;4.20;99.90;;;;;;5059796;28;19924;-63
2021/01/23 17:55:05;;;;;;;;;;;4.20;99.90;;;;;;5061905;28;19924;-63
2021/01/23 17:57:31;;;;;;;;;;;4.10;99.90;;;;;;5070652;28;19925;-63
2021/01/23 17:59:57;;;;;;;;;;;4.00;99.90;;;;;;5058881;28;19978;-62
2021/01/23 18:02:24;;;;;;;;;;;4.00;99.90;;;;;;5057650;28;19925;-62
2021/01/23 18:04:50;;;;;;;;;;;4.10;99.90;;;;;;5057563;28;19925;-63
2021/01/23 18:07:18;;;;;;;;;;;4.10;99.90;;;;;;5057012;28;20501;-63
2021/01/23 18:09:44;;;;;;;;;;;4.10;99.90;;;;;;5057740;28;19928;-62
2021/01/23 18:12:10;;;;;;;;;;;4.10;99.90;;;;;;5058051;28;19925;-63
2021/01/23 18:14:36;;;;;;;;;;;4.20;99.90;;;;;;5056972;28;19975;-64
2021/01/23 18:17:03;;;;;;;;;;;4.10;99.90;;;;;;5056975;28;19924;-64
2021/01/23 18:19:29;;;;;;;;;;;4.10;99.90;;;;;;5059335;28;19925;-62
2021/01/23 18:21:56;;;;;;;;;;;4.20;99.90;;;;;;5057409;28;19928;-62
2021/01/23 18:24:23;;;;;;;;;;;4.30;99.90;;;;;;5057241;28;19975;-64
2021/01/23 18:26:49;;;;;;;;;;;4.20;99.90;;;;;;5065212;28;19924;-63
2021/01/23 18:29:15;;;;;;;;;;;4.30;99.90;;;;;;5065970;28;19931;-64
2021/01/23 18:31:42;;;;;;;;;;;4.30;99.90;;;;;;5057704;28;19974;-64
2021/01/23 18:34:08;;;;;;;;;;;4.30;99.90;;;;;;5056806;28;20375;-62
2021/01/23 18:36:35;;;;;;;;;;;4.30;99.90;;;;;;5057395;28;19924;-63
2021/01/23 18:39:02;;;;;;;;;;;4.20;99.90;;;;;;5056688;28;19925;-64
2021/01/23 18:41:28;;;;;;;;;;;4.10;99.90;;;;;;5055992;28;19924;-64
2021/01/23 18:43:54;;;;;;;;;;;4.10;99.90;;;;;;5056599;28;19964;-62
2021/01/23 18:46:20;;;;;;;;;;;4.00;99.90;;;;;;5057283;28;19924;-64
2021/01/23 18:48:46;;;;;;;;;;;4.00;99.90;;;;;;5056439;28;19947;-64
2021/01/23 18:51:12;;;;;;;;;;;4.00;99.90;;;;;;5056383;28;19974;-63
2021/01/23 18:53:38;;;;;;;;;;;3.90;99.90;;;;;;5056637;28;19931;-64
2021/01/23 18:56:05;;;;;;;;;;;3.90;99.90;;;;;;5056365;28;19925;-65
2021/01/23 18:58:32;;;;;;;;;;;3.80;99.90;;;;;;5056177;28;19932;-63
2021/01/23 19:00:58;;;;;;;;;;;3.80;99.90;;;;;;5056116;28;19924;-63
2021/01/23 19:03:24;;;;;;;;;;;3.90;99.90;;;;;;5056416;28;19925;-63
2021/01/23 19:05:51;;;;;;;;;;;3.80;99.90;;;;;;5056195;28;19924;-64
2021/01/23 19:08:18;;;;;;;;;;;3.90;99.90;;;;;;5057037;28;19936;-65
2021/01/23 19:10:44;;;;;;;;;;;3.90;99.90;;;;;;5056609;28;19925;-64
2021/01/23 19:13:11;;;;;;;;;;;3.90;99.90;;;;;;5055980;28;19989;-64
2021/01/23 19:15:37;;;;;;;;;;;3.90;99.90;;;;;;5056685;28;19928;-64
2021/01/23 19:18:03;;;;;;;;;;;3.90;99.90;;;;;;5056418;28;19932;-63
2021/01/23 19:20:29;;;;;;;;;;;3.90;99.90;;;;;;5056264;28;19924;-63
2021/01/23 19:22:55;;;;;;;;;;;3.90;99.90;;;;;;5056233;28;19925;-65
2021/01/23 19:25:21;;;;;;;;;;;3.90;99.90;;;;;;5056599;28;19925;-63
2021/01/23 19:27:47;;;;;;;;;;;3.90;99.90;;;;;;5056296;28;19932;-63